sensor_id;sensor_type;location;lat;lon;timestamp;pressure;altitude;pressure_sealevel;temperature;humidity
53340;BME280;46212;50.258;19.062;2022-10-28T00:01:10;99652.44;;;7.78;100.00
53340;BME280;46212;50.258;19.062;2022-10-28T00:03:41;99664.50;;;7.87;100.00
53340;BME280;46212;50.258;19.062;2022-10-28T00:06:09;99663.41;;;7.81;100.00
53340;BME280;46212;50.258;19.062;2022-10-28T00:08:35;99664.97;;;7.82;100.00
53340;BME280;46212;50.258;19.062;2022-10-28T00:11:13;99636.75;;;7.78;100.00
53340;BME280;46212;50.258;19.062;2022-10-28T00:13:39;99663.22;;;7.65;100.00
53340;BME280;46212;50.258;19.062;2022-10-28T00:16:19;99651.44;;;7.65;100.00
53340;BME280;46212;50.258;19.062;2022-10-28T00:18:46;99654.56;;;7.67;100.00
53340;BME280;46212;50.258;19.062;2022-10-28T00:21:14;99657.22;;;7.74;100.00
53340;BME280;46212;50.258;19.062;2022-10-28T00:23:40;99654.34;;;7.84;100.00
53340;BME280;46212;50.258;19.062;2022-10-28T00:26:12;99618.47;;;7.61;100.00
53340;BME280;46212;50.258;19.062;2022-10-28T00:28:58;99640.97;;;7.53;100.00
53340;BME280;46212;50.258;19.062;2022-10-28T00:31:25;99636.41;;;7.39;100.00
53340;BME280;46212;50.258;19.062;2022-10-28T00:33:51;99640.66;;;7.47;100.00
53340;BME280;46212;50.258;19.062;2022-10-28T00:36:18;99640.56;;;7.54;100.00
53340;BME280;46212;50.258;19.062;2022-10-28T00:38:47;99619.81;;;7.49;100.00
53340;BME280;46212;50.258;19.062;2022-10-28T00:41:15;99618.94;;;7.56;100.00
53340;BME280;46212;50.258;19.062;2022-10-28T00:43:48;99618.41;;;7.68;100.00
53340;BME280;46212;50.258;19.062;2022-10-28T00:48:42;99605.13;;;7.63;100.00
53340;BME280;46212;50.258;19.062;2022-10-28T00:51:09;99606.38;;;7.55;100.00
53340;BME280;46212;50.258;19.062;2022-10-28T00:53:36;99608.63;;;7.30;99.27
53340;BME280;46212;50.258;19.062;2022-10-28T00:56:03;99609.88;;;7.25;100.00
53340;BME280;46212;50.258;19.062;2022-10-28T00:58:29;99608.66;;;7.26;99.95
53340;BME280;46212;50.258;19.062;2022-10-28T01:00:55;99603.31;;;7.16;99.86
53340;BME280;46212;50.258;19.062;2022-10-28T01:03:21;99609.44;;;7.27;100.00
53340;BME280;46212;50.258;19.062;2022-10-28T01:05:47;99609.97;;;7.15;100.00
53340;BME280;46212;50.258;19.062;2022-10-28T01:08:13;99607.59;;;7.17;100.00
53340;BME280;46212;50.258;19.062;2022-10-28T01:16:39;99601.56;;;7.32;99.98
53340;BME280;46212;50.258;19.062;2022-10-28T01:22:12;99604.22;;;7.39;100.00
53340;BME280;46212;50.258;19.062;2022-10-28T01:30:07;99603.09;;;7.33;100.00
53340;BME280;46212;50.258;19.062;2022-10-28T01:32:46;99598.06;;;7.28;100.00
53340;BME280;46212;50.258;19.062;2022-10-28T01:37:47;99599.13;;;7.38;100.00
53340;BME280;46212;50.258;19.062;2022-10-28T01:40:19;99584.38;;;7.25;100.00
53340;BME280;46212;50.258;19.062;2022-10-28T01:43:11;99600.78;;;7.32;100.00
53340;BME280;46212;50.258;19.062;2022-10-28T01:46:00;99585.50;;;7.27;100.00
53340;BME280;46212;50.258;19.062;2022-10-28T01:48:56;99591.13;;;7.51;100.00
53340;BME280;46212;50.258;19.062;2022-10-28T01:51:40;99589.44;;;7.60;100.00
53340;BME280;46212;50.258;19.062;2022-10-28T01:54:09;99581.16;;;7.64;100.00
53340;BME280;46212;50.258;19.062;2022-10-28T01:56:39;99573.69;;;7.64;100.00
53340;BME280;46212;50.258;19.062;2022-10-28T01:59:10;99575.56;;;7.71;100.00
53340;BME280;46212;50.258;19.062;2022-10-28T02:01:36;99561.19;;;7.60;100.00
53340;BME280;46212;50.258;19.062;2022-10-28T02:04:02;99569.81;;;7.58;100.00
53340;BME280;46212;50.258;19.062;2022-10-28T02:06:29;99567.28;;;7.44;100.00
53340;BME280;46212;50.258;19.062;2022-10-28T02:09:07;99581.00;;;7.44;98.59
53340;BME280;46212;50.258;19.062;2022-10-28T02:20:26;99572.59;;;7.24;99.13
53340;BME280;46212;50.258;19.062;2022-10-28T02:25:36;99577.34;;;7.20;98.35
53340;BME280;46212;50.258;19.062;2022-10-28T02:28:08;99583.88;;;7.33;99.82
53340;BME280;46212;50.258;19.062;2022-10-28T02:30:48;99578.38;;;7.00;100.00
53340;BME280;46212;50.258;19.062;2022-10-28T02:33:19;99576.47;;;6.93;100.00
53340;BME280;46212;50.258;19.062;2022-10-28T02:36:12;99576.00;;;6.98;100.00
53340;BME280;46212;50.258;19.062;2022-10-28T02:38:43;99552.50;;;6.97;100.00
53340;BME280;46212;50.258;19.062;2022-10-28T02:41:16;99534.53;;;6.89;100.00
53340;BME280;46212;50.258;19.062;2022-10-28T02:43:44;99548.66;;;6.91;100.00
53340;BME280;46212;50.258;19.062;2022-10-28T02:46:12;99544.66;;;6.95;100.00
53340;BME280;46212;50.258;19.062;2022-10-28T02:48:42;99528.56;;;6.98;100.00
53340;BME280;46212;50.258;19.062;2022-10-28T02:51:11;99522.91;;;7.12;100.00
53340;BME280;46212;50.258;19.062;2022-10-28T02:53:58;99522.78;;;7.22;100.00
53340;BME280;46212;50.258;19.062;2022-10-28T02:56:28;99522.69;;;7.29;100.00
53340;BME280;46212;50.258;19.062;2022-10-28T02:58:54;99524.66;;;7.29;100.00
53340;BME280;46212;50.258;19.062;2022-10-28T03:01:19;99525.38;;;7.03;100.00
53340;BME280;46212;50.258;19.062;2022-10-28T03:03:45;99534.72;;;6.71;100.00
53340;BME280;46212;50.258;19.062;2022-10-28T03:06:10;99517.84;;;6.69;100.00
53340;BME280;46212;50.258;19.062;2022-10-28T03:08:35;99520.88;;;6.82;100.00
53340;BME280;46212;50.258;19.062;2022-10-28T03:11:01;99531.22;;;7.05;100.00
53340;BME280;46212;50.258;19.062;2022-10-28T03:13:26;99530.41;;;7.08;100.00
53340;BME280;46212;50.258;19.062;2022-10-28T03:15:51;99534.94;;;7.21;100.00
53340;BME280;46212;50.258;19.062;2022-10-28T03:18:17;99537.31;;;7.23;100.00
53340;BME280;46212;50.258;19.062;2022-10-28T03:20:42;99541.34;;;7.11;100.00
53340;BME280;46212;50.258;19.062;2022-10-28T03:23:08;99533.09;;;6.77;100.00
53340;BME280;46212;50.258;19.062;2022-10-28T03:25:33;99538.66;;;6.67;100.00
53340;BME280;46212;50.258;19.062;2022-10-28T03:27:58;99535.22;;;6.59;100.00
53340;BME280;46212;50.258;19.062;2022-10-28T03:30:24;99522.78;;;6.48;100.00
53340;BME280;46212;50.258;19.062;2022-10-28T03:32:49;99520.00;;;6.51;100.00
53340;BME280;46212;50.258;19.062;2022-10-28T03:35:14;99507.41;;;6.57;100.00
53340;BME280;46212;50.258;19.062;2022-10-28T03:37:41;99515.88;;;6.73;100.00
53340;BME280;46212;50.258;19.062;2022-10-28T03:40:08;99515.56;;;7.02;100.00
53340;BME280;46212;50.258;19.062;2022-10-28T03:42:33;99503.22;;;7.17;100.00
53340;BME280;46212;50.258;19.062;2022-10-28T03:44:59;99515.75;;;7.18;100.00
53340;BME280;46212;50.258;19.062;2022-10-28T03:47:24;99500.97;;;7.08;100.00
53340;BME280;46212;50.258;19.062;2022-10-28T03:49:50;99517.16;;;6.99;100.00
53340;BME280;46212;50.258;19.062;2022-10-28T03:52:15;99502.63;;;6.65;100.00
53340;BME280;46212;50.258;19.062;2022-10-28T03:54:40;99516.47;;;6.51;100.00
53340;BME280;46212;50.258;19.062;2022-10-28T03:57:06;99510.44;;;6.22;100.00
53340;BME280;46212;50.258;19.062;2022-10-28T03:59:31;99520.97;;;6.30;100.00
53340;BME280;46212;50.258;19.062;2022-10-28T04:01:57;99511.78;;;6.48;100.00
53340;BME280;46212;50.258;19.062;2022-10-28T04:04:22;99507.09;;;6.48;100.00
53340;BME280;46212;50.258;19.062;2022-10-28T04:06:47;99511.75;;;6.55;100.00
53340;BME280;46212;50.258;19.062;2022-10-28T04:09:13;99528.44;;;6.71;100.00
53340;BME280;46212;50.258;19.062;2022-10-28T04:11:38;99524.63;;;6.61;100.00
53340;BME280;46212;50.258;19.062;2022-10-28T04:14:03;99526.56;;;6.61;100.00
53340;BME280;46212;50.258;19.062;2022-10-28T04:16:29;99515.69;;;6.50;100.00
53340;BME280;46212;50.258;19.062;2022-10-28T04:18:54;99513.88;;;6.36;100.00
53340;BME280;46212;50.258;19.062;2022-10-28T04:21:20;99526.28;;;6.52;100.00
53340;BME280;46212;50.258;19.062;2022-10-28T04:23:46;99526.56;;;6.61;100.00
53340;BME280;46212;50.258;19.062;2022-10-28T04:26:11;99522.97;;;6.67;100.00
53340;BME280;46212;50.258;19.062;2022-10-28T04:28:38;99520.94;;;6.78;100.00
53340;BME280;46212;50.258;19.062;2022-10-28T04:31:03;99508.75;;;6.79;100.00
53340;BME280;46212;50.258;19.062;2022-10-28T04:33:29;99496.28;;;6.71;100.00
53340;BME280;46212;50.258;19.062;2022-10-28T04:35:54;99507.25;;;6.34;100.00
53340;BME280;46212;50.258;19.062;2022-10-28T04:38:19;99513.56;;;6.27;100.00
53340;BME280;46212;50.258;19.062;2022-10-28T04:40:48;99507.25;;;6.34;100.00
53340;BME280;46212;50.258;19.062;2022-10-28T04:43:15;99506.88;;;6.28;100.00
53340;BME280;46212;50.258;19.062;2022-10-28T04:45:41;99499.94;;;6.13;100.00
53340;BME280;46212;50.258;19.062;2022-10-28T04:48:08;99499.19;;;6.09;100.00
53340;BME280;46212;50.258;19.062;2022-10-28T04:50:34;99497.69;;;6.01;100.00
53340;BME280;46212;50.258;19.062;2022-10-28T04:53:00;99503.88;;;6.12;100.00
53340;BME280;46212;50.258;19.062;2022-10-28T04:55:25;99508.78;;;6.35;100.00
53340;BME280;46212;50.258;19.062;2022-10-28T04:57:56;99504.44;;;6.37;100.00
53340;BME280;46212;50.258;19.062;2022-10-28T05:00:23;99493.84;;;5.95;100.00
53340;BME280;46212;50.258;19.062;2022-10-28T05:02:49;99494.91;;;6.08;100.00
53340;BME280;46212;50.258;19.062;2022-10-28T05:05:15;99483.56;;;6.03;100.00
53340;BME280;46212;50.258;19.062;2022-10-28T05:07:41;99494.72;;;6.29;100.00
53340;BME280;46212;50.258;19.062;2022-10-28T05:10:07;99490.22;;;6.53;100.00
53340;BME280;46212;50.258;19.062;2022-10-28T05:12:32;99473.56;;;6.67;100.00
53340;BME280;46212;50.258;19.062;2022-10-28T05:14:58;99474.44;;;6.61;100.00
53340;BME280;46212;50.258;19.062;2022-10-28T05:17:23;99464.88;;;6.72;98.97
53340;BME280;46212;50.258;19.062;2022-10-28T05:19:48;99483.09;;;6.59;99.38
53340;BME280;46212;50.258;19.062;2022-10-28T05:22:14;99482.75;;;6.50;99.89
53340;BME280;46212;50.258;19.062;2022-10-28T05:24:39;99490.34;;;6.35;99.87
53340;BME280;46212;50.258;19.062;2022-10-28T05:27:04;99487.59;;;6.39;100.00
53340;BME280;46212;50.258;19.062;2022-10-28T05:29:30;99476.16;;;6.44;100.00
53340;BME280;46212;50.258;19.062;2022-10-28T05:31:55;99481.72;;;6.40;100.00
53340;BME280;46212;50.258;19.062;2022-10-28T05:34:21;99490.28;;;6.46;100.00
53340;BME280;46212;50.258;19.062;2022-10-28T05:36:46;99491.13;;;6.39;100.00
53340;BME280;46212;50.258;19.062;2022-10-28T05:39:11;99491.91;;;6.40;100.00
53340;BME280;46212;50.258;19.062;2022-10-28T05:41:38;99492.25;;;6.42;100.00
53340;BME280;46212;50.258;19.062;2022-10-28T05:44:04;99499.31;;;6.43;100.00
53340;BME280;46212;50.258;19.062;2022-10-28T05:46:29;99489.22;;;6.33;100.00
53340;BME280;46212;50.258;19.062;2022-10-28T05:48:55;99490.53;;;6.18;100.00
53340;BME280;46212;50.258;19.062;2022-10-28T05:51:20;99477.63;;;6.15;100.00
53340;BME280;46212;50.258;19.062;2022-10-28T05:53:46;99474.19;;;6.00;100.00
53340;BME280;46212;50.258;19.062;2022-10-28T05:56:11;99469.13;;;6.02;100.00
53340;BME280;46212;50.258;19.062;2022-10-28T05:58:37;99489.22;;;6.33;100.00
53340;BME280;46212;50.258;19.062;2022-10-28T06:01:05;99487.53;;;6.46;100.00
53340;BME280;46212;50.258;19.062;2022-10-28T06:03:31;99481.81;;;6.67;100.00
53340;BME280;46212;50.258;19.062;2022-10-28T06:05:56;99491.66;;;6.99;99.53
53340;BME280;46212;50.258;19.062;2022-10-28T06:08:22;99483.38;;;7.02;98.88
53340;BME280;46212;50.258;19.062;2022-10-28T06:10:51;99483.38;;;7.02;99.05
53340;BME280;46212;50.258;19.062;2022-10-28T06:13:17;99483.38;;;7.02;98.85
53340;BME280;46212;50.258;19.062;2022-10-28T06:15:43;99470.50;;;6.95;98.59
53340;BME280;46212;50.258;19.062;2022-10-28T06:18:08;99475.31;;;6.88;98.08
53340;BME280;46212;50.258;19.062;2022-10-28T06:20:34;99485.06;;;6.92;98.34
53340;BME280;46212;50.258;19.062;2022-10-28T06:23:00;99473.06;;;6.79;98.23
53340;BME280;46212;50.258;19.062;2022-10-28T06:25:26;99469.34;;;6.97;98.31
53340;BME280;46212;50.258;19.062;2022-10-28T06:27:55;99483.53;;;7.22;98.08
53340;BME280;46212;50.258;19.062;2022-10-28T06:30:22;99496.59;;;7.44;97.83
53340;BME280;46212;50.258;19.062;2022-10-28T06:32:47;99492.84;;;7.58;97.77
53340;BME280;46212;50.258;19.062;2022-10-28T06:35:13;99507.66;;;7.68;97.57
53340;BME280;46212;50.258;19.062;2022-10-28T06:37:38;99505.47;;;7.56;98.29
53340;BME280;46212;50.258;19.062;2022-10-28T06:40:04;99507.38;;;7.59;98.79
53340;BME280;46212;50.258;19.062;2022-10-28T06:42:30;99512.06;;;7.62;98.36
53340;BME280;46212;50.258;19.062;2022-10-28T06:44:55;99513.94;;;7.68;98.69
53340;BME280;46212;50.258;19.062;2022-10-28T06:47:21;99519.38;;;7.72;98.56
53340;BME280;46212;50.258;19.062;2022-10-28T06:49:46;99502.28;;;7.61;98.88
53340;BME280;46212;50.258;19.062;2022-10-28T06:52:13;99515.69;;;7.55;99.64
53340;BME280;46212;50.258;19.062;2022-10-28T06:54:38;99510.22;;;7.52;100.00
53340;BME280;46212;50.258;19.062;2022-10-28T06:57:03;99518.34;;;7.89;100.00
53340;BME280;46212;50.258;19.062;2022-10-28T06:59:29;99518.06;;;8.07;99.22
53340;BME280;46212;50.258;19.062;2022-10-28T07:01:54;99524.81;;;8.29;98.60
53340;BME280;46212;50.258;19.062;2022-10-28T07:04:20;99519.50;;;8.41;98.23
53340;BME280;46212;50.258;19.062;2022-10-28T07:06:45;99524.41;;;8.53;98.07
53340;BME280;46212;50.258;19.062;2022-10-28T07:09:13;99517.16;;;8.63;97.91
53340;BME280;46212;50.258;19.062;2022-10-28T07:11:40;99511.59;;;8.67;97.43
53340;BME280;46212;50.258;19.062;2022-10-28T07:14:08;99531.63;;;8.90;97.26
53340;BME280;46212;50.258;19.062;2022-10-28T07:16:33;99529.31;;;9.08;97.03
53340;BME280;46212;50.258;19.062;2022-10-28T07:18:59;99536.66;;;9.15;96.86
53340;BME280;46212;50.258;19.062;2022-10-28T07:21:24;99532.47;;;9.27;97.95
53340;BME280;46212;50.258;19.062;2022-10-28T07:23:53;99519.06;;;9.29;100.00
53340;BME280;46212;50.258;19.062;2022-10-28T07:26:19;99517.25;;;9.58;100.00
53340;BME280;46212;50.258;19.062;2022-10-28T07:28:44;99532.53;;;9.98;100.00
53340;BME280;46212;50.258;19.062;2022-10-28T07:31:09;99519.81;;;10.37;100.00
53340;BME280;46212;50.258;19.062;2022-10-28T07:33:35;99512.69;;;10.68;100.00
53340;BME280;46212;50.258;19.062;2022-10-28T07:36:05;99515.22;;;10.91;100.00
53340;BME280;46212;50.258;19.062;2022-10-28T07:38:31;99524.34;;;11.04;100.00
53340;BME280;46212;50.258;19.062;2022-10-28T07:40:56;99504.16;;;11.20;100.00
53340;BME280;46212;50.258;19.062;2022-10-28T07:43:22;99515.75;;;11.44;100.00
53340;BME280;46212;50.258;19.062;2022-10-28T07:45:47;99505.81;;;11.59;100.00
53340;BME280;46212;50.258;19.062;2022-10-28T07:48:19;99496.84;;;11.67;100.00
53340;BME280;46212;50.258;19.062;2022-10-28T07:50:44;99515.72;;;11.85;100.00
53340;BME280;46212;50.258;19.062;2022-10-28T07:53:09;99512.28;;;11.94;100.00
53340;BME280;46212;50.258;19.062;2022-10-28T07:55:35;99514.25;;;12.06;100.00
53340;BME280;46212;50.258;19.062;2022-10-28T07:58:00;99514.03;;;12.13;99.63
53340;BME280;46212;50.258;19.062;2022-10-28T08:00:26;99512.81;;;12.27;98.77
53340;BME280;46212;50.258;19.062;2022-10-28T08:02:51;99503.81;;;12.35;98.39
53340;BME280;46212;50.258;19.062;2022-10-28T08:05:16;99491.41;;;12.40;97.04
53340;BME280;46212;50.258;19.062;2022-10-28T08:07:42;99507.88;;;12.56;96.94
53340;BME280;46212;50.258;19.062;2022-10-28T08:10:07;99510.41;;;12.63;96.78
53340;BME280;46212;50.258;19.062;2022-10-28T08:12:33;99512.59;;;12.81;95.93
53340;BME280;46212;50.258;19.062;2022-10-28T08:14:58;99511.63;;;12.96;95.15
53340;BME280;46212;50.258;19.062;2022-10-28T08:17:24;99494.03;;;12.90;94.65
53340;BME280;46212;50.258;19.062;2022-10-28T08:19:49;99487.47;;;12.97;94.43
53340;BME280;46212;50.258;19.062;2022-10-28T08:22:14;99503.78;;;13.16;94.44
53340;BME280;46212;50.258;19.062;2022-10-28T08:24:40;99472.72;;;13.21;93.07
53340;BME280;46212;50.258;19.062;2022-10-28T08:27:05;99490.06;;;13.35;93.18
53340;BME280;46212;50.258;19.062;2022-10-28T08:29:31;99496.94;;;13.52;93.53
53340;BME280;46212;50.258;19.062;2022-10-28T08:31:56;99496.88;;;13.73;92.71
53340;BME280;46212;50.258;19.062;2022-10-28T08:34:22;99502.69;;;13.88;92.32
53340;BME280;46212;50.258;19.062;2022-10-28T08:36:47;99488.03;;;13.88;91.06
53340;BME280;46212;50.258;19.062;2022-10-28T08:39:13;99488.53;;;13.95;90.46
53340;BME280;46212;50.258;19.062;2022-10-28T08:41:39;99488.59;;;14.22;90.00
53340;BME280;46212;50.258;19.062;2022-10-28T08:44:23;99495.63;;;14.36;89.34
53340;BME280;46212;50.258;19.062;2022-10-28T08:49:29;99498.72;;;14.65;87.69
53340;BME280;46212;50.258;19.062;2022-10-28T08:52:22;99498.44;;;14.72;87.87
53340;BME280;46212;50.258;19.062;2022-10-28T08:54:53;99510.19;;;14.76;87.32
53340;BME280;46212;50.258;19.062;2022-10-28T08:57:42;99503.84;;;14.85;86.06
53340;BME280;46212;50.258;19.062;2022-10-28T09:00:22;99498.59;;;14.78;85.56
53340;BME280;46212;50.258;19.062;2022-10-28T09:05:37;99495.81;;;14.78;85.51
53340;BME280;46212;50.258;19.062;2022-10-28T09:08:02;99488.25;;;14.78;84.96
53340;BME280;46212;50.258;19.062;2022-10-28T09:15:44;99488.56;;;14.80;84.30
53340;BME280;46212;50.258;19.062;2022-10-28T09:20:52;99478.19;;;15.08;83.33
53340;BME280;46212;50.258;19.062;2022-10-28T09:23:32;99483.91;;;15.14;82.43
53340;BME280;46212;50.258;19.062;2022-10-28T09:31:36;99488.81;;;15.37;81.19
53340;BME280;46212;50.258;19.062;2022-10-28T09:36:47;99494.25;;;15.22;81.80
53340;BME280;46212;50.258;19.062;2022-10-28T09:39:19;99482.84;;;15.11;82.15
53340;BME280;46212;50.258;19.062;2022-10-28T09:41:48;99496.56;;;15.33;80.65
53340;BME280;46212;50.258;19.062;2022-10-28T09:44:19;99493.47;;;15.40;80.76
53340;BME280;46212;50.258;19.062;2022-10-28T09:46:52;99497.97;;;15.28;81.48
53340;BME280;46212;50.258;19.062;2022-10-28T09:49:32;99482.31;;;15.40;80.94
53340;BME280;46212;50.258;19.062;2022-10-28T09:52:14;99492.69;;;15.39;80.04
53340;BME280;46212;50.258;19.062;2022-10-28T09:54:45;99493.28;;;15.62;79.50
53340;BME280;46212;50.258;19.062;2022-10-28T09:57:12;99490.22;;;15.51;79.68
53340;BME280;46212;50.258;19.062;2022-10-28T09:59:37;99498.69;;;15.65;79.73
53340;BME280;46212;50.258;19.062;2022-10-28T10:02:03;99495.41;;;15.76;79.22
53340;BME280;46212;50.258;19.062;2022-10-28T10:04:29;99490.13;;;15.78;79.39
53340;BME280;46212;50.258;19.062;2022-10-28T10:07:07;99485.00;;;15.85;78.64
53340;BME280;46212;50.258;19.062;2022-10-28T10:09:34;99488.31;;;16.08;77.77
53340;BME280;46212;50.258;19.062;2022-10-28T10:12:07;99476.56;;;16.04;77.43
53340;BME280;46212;50.258;19.062;2022-10-28T10:14:49;99479.38;;;16.27;77.37
53340;BME280;46212;50.258;19.062;2022-10-28T10:17:23;99478.66;;;16.18;76.99
53340;BME280;46212;50.258;19.062;2022-10-28T10:20:12;99478.06;;;16.37;76.26
53340;BME280;46212;50.258;19.062;2022-10-28T10:22:41;99471.59;;;16.31;76.28
53340;BME280;46212;50.258;19.062;2022-10-28T10:27:42;99462.34;;;16.58;74.53
53340;BME280;46212;50.258;19.062;2022-10-28T10:30:18;99475.28;;;16.85;73.77
53340;BME280;46212;50.258;19.062;2022-10-28T10:32:46;99473.94;;;16.80;73.49
53340;BME280;46212;50.258;19.062;2022-10-28T10:37:41;99471.63;;;16.93;73.46
53340;BME280;46212;50.258;19.062;2022-10-28T10:40:18;99470.94;;;16.84;73.90
53340;BME280;46212;50.258;19.062;2022-10-28T10:42:45;99473.34;;;17.15;72.95
53340;BME280;46212;50.258;19.062;2022-10-28T10:47:39;99467.41;;;17.66;70.58
53340;BME280;46212;50.258;19.062;2022-10-28T10:50:26;99483.34;;;17.36;71.31
53340;BME280;46212;50.258;19.062;2022-10-28T10:52:57;99475.19;;;17.47;71.52
53340;BME280;46212;50.258;19.062;2022-10-28T10:55:32;99465.38;;;17.66;70.77
53340;BME280;46212;50.258;19.062;2022-10-28T10:58:00;99460.69;;;17.92;69.61
53340;BME280;46212;50.258;19.062;2022-10-28T11:00:37;99475.56;;;18.19;69.13
53340;BME280;46212;50.258;19.062;2022-10-28T11:03:10;99465.75;;;18.09;68.56
53340;BME280;46212;50.258;19.062;2022-10-28T11:05:47;99462.94;;;18.43;67.73
53340;BME280;46212;50.258;19.062;2022-10-28T11:08:36;99458.91;;;18.44;65.87
53340;BME280;46212;50.258;19.062;2022-10-28T11:11:12;99473.38;;;18.08;65.23
53340;BME280;46212;50.258;19.062;2022-10-28T11:13:39;99460.09;;;18.78;64.18
53340;BME280;46212;50.258;19.062;2022-10-28T11:16:22;99469.25;;;18.99;63.41
53340;BME280;46212;50.258;19.062;2022-10-28T11:18:51;99457.91;;;19.08;62.76
53340;BME280;46212;50.258;19.062;2022-10-28T11:21:31;99459.59;;;19.00;63.05
53340;BME280;46212;50.258;19.062;2022-10-28T11:24:25;99449.91;;;19.21;62.64
53340;BME280;46212;50.258;19.062;2022-10-28T11:27:08;99450.63;;;19.73;60.90
53340;BME280;46212;50.258;19.062;2022-10-28T11:29:36;99452.78;;;19.32;61.15
53340;BME280;46212;50.258;19.062;2022-10-28T11:32:35;99459.16;;;19.07;61.89
53340;BME280;46212;50.258;19.062;2022-10-28T11:40:39;99460.56;;;19.43;61.35
53340;BME280;46212;50.258;19.062;2022-10-28T11:43:45;99461.31;;;19.18;61.86
53340;BME280;46212;50.258;19.062;2022-10-28T11:49:25;99456.13;;;19.10;61.09
53340;BME280;46212;50.258;19.062;2022-10-28T11:57:13;99443.88;;;18.82;62.16
53340;BME280;46212;50.258;19.062;2022-10-28T12:14:34;99430.94;;;19.10;61.46
53340;BME280;46212;50.258;19.062;2022-10-28T12:17:10;99422.78;;;19.38;61.08
53340;BME280;46212;50.258;19.062;2022-10-28T12:19:49;99432.63;;;19.54;60.51
53340;BME280;46212;50.258;19.062;2022-10-28T12:22:21;99427.69;;;19.69;60.13
53340;BME280;46212;50.258;19.062;2022-10-28T12:24:50;99411.78;;;19.60;59.90
53340;BME280;46212;50.258;19.062;2022-10-28T12:27:24;99413.06;;;19.96;59.01
53340;BME280;46212;50.258;19.062;2022-10-28T12:30:07;99425.09;;;20.02;58.87
53340;BME280;46212;50.258;19.062;2022-10-28T12:32:40;99424.72;;;19.84;58.56
53340;BME280;46212;50.258;19.062;2022-10-28T12:35:20;99417.69;;;19.63;59.85
53340;BME280;46212;50.258;19.062;2022-10-28T12:38:01;99408.56;;;20.58;57.60
53340;BME280;46212;50.258;19.062;2022-10-28T12:40:30;99407.41;;;20.92;56.50
53340;BME280;46212;50.258;19.062;2022-10-28T12:43:12;99400.19;;;20.75;56.93
53340;BME280;46212;50.258;19.062;2022-10-28T12:45:39;99408.66;;;20.97;56.53
53340;BME280;46212;50.258;19.062;2022-10-28T12:48:14;99404.34;;;20.96;56.32
53340;BME280;46212;50.258;19.062;2022-10-28T12:50:51;99402.34;;;20.37;57.61
53340;BME280;46212;50.258;19.062;2022-10-28T12:53:26;99411.19;;;20.84;56.23
53340;BME280;46212;50.258;19.062;2022-10-28T12:55:58;99410.59;;;20.57;56.23
53340;BME280;46212;50.258;19.062;2022-10-28T13:01:02;99408.03;;;20.48;56.85
53340;BME280;46212;50.258;19.062;2022-10-28T13:03:28;99397.25;;;21.28;54.41
53340;BME280;46212;50.258;19.062;2022-10-28T13:06:04;99396.72;;;21.80;52.17
53340;BME280;46212;50.258;19.062;2022-10-28T13:08:47;99392.91;;;21.55;52.87
53340;BME280;46212;50.258;19.062;2022-10-28T13:25:00;99413.16;;;24.69;44.13
53340;BME280;46212;50.258;19.062;2022-10-28T13:27:27;99405.72;;;23.10;47.38
53340;BME280;46212;50.258;19.062;2022-10-28T13:29:55;99398.53;;;21.94;50.88
53340;BME280;46212;50.258;19.062;2022-10-28T13:32:37;99414.59;;;21.82;51.67
53340;BME280;46212;50.258;19.062;2022-10-28T13:35:20;99389.72;;;20.81;53.50
53340;BME280;46212;50.258;19.062;2022-10-28T13:37:48;99387.84;;;22.96;48.72
53340;BME280;46212;50.258;19.062;2022-10-28T13:43:00;99381.78;;;27.95;37.50
53340;BME280;46212;50.258;19.062;2022-10-28T13:45:50;99379.00;;;27.33;37.95
53340;BME280;46212;50.258;19.062;2022-10-28T13:58:36;99393.00;;;28.29;36.08
53340;BME280;46212;50.258;19.062;2022-10-28T14:01:34;99393.53;;;27.71;37.29
53340;BME280;46212;50.258;19.062;2022-10-28T14:03:50;99397.38;;;26.07;39.31
53340;BME280;46212;50.258;19.062;2022-10-28T14:06:29;99392.72;;;26.09;40.46
53340;BME280;46212;50.258;19.062;2022-10-28T14:08:55;99389.50;;;26.91;39.03
53340;BME280;46212;50.258;19.062;2022-10-28T14:11:22;99387.84;;;26.96;38.72
53340;BME280;46212;50.258;19.062;2022-10-28T14:13:58;99376.88;;;26.79;39.10
53340;BME280;46212;50.258;19.062;2022-10-28T14:16:30;99387.03;;;25.83;40.92
53340;BME280;46212;50.258;19.062;2022-10-28T14:18:59;99379.41;;;25.91;40.91
53340;BME280;46212;50.258;19.062;2022-10-28T14:21:47;99385.53;;;24.81;43.65
53340;BME280;46212;50.258;19.062;2022-10-28T14:24:39;99375.84;;;23.91;45.88
53340;BME280;46212;50.258;19.062;2022-10-28T14:37:55;99381.56;;;24.04;46.08
53340;BME280;46212;50.258;19.062;2022-10-28T14:40:48;99370.91;;;24.21;46.01
53340;BME280;46212;50.258;19.062;2022-10-28T14:48:57;99361.88;;;22.21;50.93
53340;BME280;46212;50.258;19.062;2022-10-28T14:51:25;99364.63;;;22.33;50.67
53340;BME280;46212;50.258;19.062;2022-10-28T14:53:55;99355.69;;;22.29;50.37
53340;BME280;46212;50.258;19.062;2022-10-28T14:56:26;99360.59;;;22.22;51.01
53340;BME280;46212;50.258;19.062;2022-10-28T14:58:56;99361.22;;;21.71;53.04
53340;BME280;46212;50.258;19.062;2022-10-28T15:01:24;99356.59;;;21.73;53.50
53340;BME280;46212;50.258;19.062;2022-10-28T15:04:01;99363.44;;;20.78;55.53
53340;BME280;46212;50.258;19.062;2022-10-28T15:06:33;99353.75;;;20.09;57.71
53340;BME280;46212;50.258;19.062;2022-10-28T15:09:20;99360.38;;;20.11;57.76
53340;BME280;46212;50.258;19.062;2022-10-28T15:12:07;99357.53;;;19.27;60.45
53340;BME280;46212;50.258;19.062;2022-10-28T15:14:40;99367.28;;;19.05;61.85
53340;BME280;46212;50.258;19.062;2022-10-28T15:19:39;99356.84;;;17.79;66.13
53340;BME280;46212;50.258;19.062;2022-10-28T15:24:51;99348.66;;;17.56;67.51